Ocean Drive — ZGCA7 — position and weather

sailwx.info

Track history (hours):
 
Tides and Currents Weather Stations Pressure Air Temp Water Temp Dewpoint Dewpoint Depression Visibility Wind Speed Wind Dir Waves Ship Positions

Ocean Drive

Last reported at 2014-Sep-01 18:32 UTC. Time now 2014-Sep-01 19:02 UTC.
Position N 41°00' W 072°11'.

Length 104 m.

Type: Port tender. MMSI: 319901000.

Date/timePositionNaut miles runAvg speedWind from/ knotsBaromVisibWave heightAir tempDewpointWater temp
2014-Sep-01 18:32N 41°00' W 072°11'0 0.0
2014-Sep-01 17:32N 41°00' W 072°11'0 0.0
2014-Sep-01 16:32N 41°00' W 072°11'0 0.0
2014-Sep-01 15:32N 41°00' W 072°11'0 0.0
2014-Sep-01 14:29N 41°00' W 072°11'0 0.0
2014-Sep-01 13:32N 41°00' W 072°11'0 0.0
2014-Sep-01 12:32N 41°00' W 072°11'0 0.0
2014-Sep-01 11:32N 41°00' W 072°11'0 0.0
2014-Sep-01 10:32N 41°00' W 072°11'0 0.0
2014-Sep-01 09:32N 41°00' W 072°11'0 0.0
2014-Sep-01 08:32N 41°00' W 072°11'0 0.0
2014-Sep-01 07:32N 41°00' W 072°11'0 0.0
2014-Sep-01 06:32N 41°00' W 072°11'0 0.0
2014-Sep-01 05:32N 41°00' W 072°11'0 0.0
2014-Sep-01 04:32N 41°00' W 072°11'0 0.0
2014-Sep-01 03:32N 41°00' W 072°11'0 0.0
2014-Sep-01 02:32N 41°00' W 072°11'0 0.0
2014-Sep-01 01:32N 41°00' W 072°11'0 0.0
2014-Sep-01 00:32N 41°00' W 072°11'0 0.0
2014-Aug-31 23:32N 41°00' W 072°11'0 0.0
2014-Aug-31 22:32N 41°00' W 072°11'0 0.0
2014-Aug-31 21:32N 41°00' W 072°11'0 0.0
2014-Aug-31 20:32N 41°00' W 072°11'0 0.0
2014-Aug-31 19:29N 41°00' W 072°11'0 0.0
2014-Aug-31 18:32N 41°00' W 072°11'0 0.0
2014-Aug-31 17:29N 41°00' W 072°11'0 0.0
2014-Aug-31 16:32N 41°00' W 072°11'0 0.0
2014-Aug-31 15:26N 41°00' W 072°11'0 0.0
2014-Aug-31 14:33N 41°00' W 072°11'0 0.0
2014-Aug-31 13:33N 41°00' W 072°11'0 0.0
2014-Aug-31 12:33N 41°00' W 072°11'0 0.0
2014-Aug-31 11:33N 41°00' W 072°11'0 0.0
2014-Aug-31 10:33N 41°00' W 072°11'0 0.0
2014-Aug-31 09:33N 41°00' W 072°11'0 0.0
2014-Aug-31 08:33N 41°00' W 072°11'0 0.0
2014-Aug-31 07:33N 41°00' W 072°11'0 0.0
2014-Aug-31 06:33N 41°00' W 072°11'0 0.0
2014-Aug-31 05:33N 41°00' W 072°11'0 0.0
2014-Aug-31 04:33N 41°00' W 072°11'0 0.0
2014-Aug-31 03:33N 41°00' W 072°11'0 0.0
2014-Aug-31 02:33N 41°00' W 072°11'0 0.0
2014-Aug-31 01:33N 41°00' W 072°11'0 0.0
2014-Aug-31 00:33N 41°00' W 072°11'0 0.0
2014-Aug-30 23:33N 41°00' W 072°11'0 0.0
2014-Aug-30 22:33N 41°00' W 072°11'0 0.0
2014-Aug-30 21:33N 41°00' W 072°11'5 4.7
2014-Aug-30 20:33N 41°04' W 072°14'4 4.2
2014-Aug-30 19:33N 41°07' W 072°18'0 0.0
2014-Aug-30 18:34N 41°07' W 072°18'0 0.0
2014-Aug-30 17:30N 41°07' W 072°18'0 0.0
2014-Aug-30 16:34N 41°07' W 072°18'1 1.4
2014-Aug-30 15:33N 41°06' W 072°17'8 7.5
2014-Aug-30 14:34N 41°00' W 072°11'0 0.1
2014-Aug-30 13:32N 41°00' W 072°11'0 0.0
2014-Aug-30 12:32N 41°00' W 072°11'0 0.0
2014-Aug-30 11:32N 41°00' W 072°11'0 0.0
2014-Aug-30 10:32N 41°00' W 072°11'0 0.0
2014-Aug-30 09:32N 41°00' W 072°11'0 0.0
2014-Aug-30 08:32N 41°00' W 072°11'0 0.0
2014-Aug-30 07:32N 41°00' W 072°11'0 0.0
2014-Aug-30 06:29N 41°00' W 072°11'0 0.0
2014-Aug-30 05:32N 41°00' W 072°11'0 0.0
2014-Aug-30 04:32N 41°00' W 072°11'0 0.0
2014-Aug-30 03:32N 41°00' W 072°11'0 0.0
2014-Aug-30 02:32N 41°00' W 072°11'0 0.0
2014-Aug-30 01:32N 41°00' W 072°11'0 0.0
2014-Aug-30 00:29N 41°00' W 072°11'0 0.0
2014-Aug-29 23:32N 41°00' W 072°11'0 0.0
2014-Aug-29 22:32N 41°00' W 072°11'0 0.0
2014-Aug-29 21:32N 41°00' W 072°11'0 0.0
2014-Aug-29 20:31N 41°00' W 072°11'0 0.0
2014-Aug-29 19:32N 41°00' W 072°11'0 0.0
2014-Aug-29 18:32N 41°00' W 072°11'0 0.0
2014-Aug-29 17:31N 41°00' W 072°11'0 0.0
2014-Aug-29 16:29N 41°00' W 072°11'0 0.0
2014-Aug-29 15:32N 41°00' W 072°11'0 0.0
2014-Aug-29 14:32N 41°00' W 072°11'0 0.0
2014-Aug-29 13:31N 41°00' W 072°11'0 0.0
2014-Aug-29 12:31N 41°00' W 072°11'0 0.0
2014-Aug-29 11:31N 41°00' W 072°11'0 0.0
2014-Aug-29 10:29N 41°00' W 072°11'0 0.0
2014-Aug-29 09:31N 41°00' W 072°11'0 0.0
2014-Aug-29 08:32N 41°00' W 072°11'0 0.0
2014-Aug-29 07:31N 41°00' W 072°11'0 0.0
2014-Aug-29 06:31N 41°00' W 072°11'0 0.0
2014-Aug-29 05:31N 41°00' W 072°11'0 0.0
2014-Aug-29 04:31N 41°00' W 072°11'0 0.0
2014-Aug-29 03:28N 41°00' W 072°11'0 0.0
2014-Aug-29 02:31N 41°00' W 072°11'0 0.0
2014-Aug-29 01:31N 41°00' W 072°11'0 0.0
2014-Aug-29 00:31N 41°00' W 072°11'0 0.0
2014-Aug-28 23:31N 41°00' W 072°11'0 0.0
2014-Aug-28 22:31N 41°00' W 072°11'0 0.0
2014-Aug-28 21:31N 41°00' W 072°11'0 0.0
2014-Aug-28 20:31N 41°00' W 072°11'0 0.0
2014-Aug-28 19:31N 41°00' W 072°11'0 0.0
2014-Aug-28 18:31N 41°00' W 072°11'0 0.0
2014-Aug-28 17:31N 41°00' W 072°11'0 0.0
2014-Aug-28 16:31N 41°00' W 072°11'0 0.0
2014-Aug-28 15:31N 41°00' W 072°11'0 0.0
2014-Aug-28 14:31N 41°00' W 072°11'0 0.0
2014-Aug-28 13:31N 41°00' W 072°11'0 0.0
2014-Aug-28 12:28N 41°00' W 072°11'0 0.0
2014-Aug-28 11:31N 41°00' W 072°11'0 0.0
2014-Aug-28 10:31N 41°00' W 072°11'0 0.0
2014-Aug-28 09:31N 41°00' W 072°11'0 0.0
2014-Aug-28 08:31N 41°00' W 072°11'0 0.0
2014-Aug-28 07:31N 41°00' W 072°11'0 0.0
2014-Aug-28 06:31N 41°00' W 072°11'0 0.0
2014-Aug-28 05:31N 41°00' W 072°11'0 0.0
2014-Aug-28 04:31N 41°00' W 072°11'0 0.0
2014-Aug-28 03:31N 41°00' W 072°11'0 0.0
2014-Aug-28 02:31N 41°00' W 072°11'0 0.0
2014-Aug-28 01:28N 41°00' W 072°11'0 0.0
2014-Aug-28 00:28N 41°00' W 072°11'0 0.0
2014-Aug-27 23:31N 41°00' W 072°11'0 0.0
2014-Aug-27 22:31N 41°00' W 072°11'0 0.0
2014-Aug-27 21:31N 41°00' W 072°11'0 0.0
2014-Aug-27 20:31N 41°00' W 072°11'0 0.0
2014-Aug-27 19:28N 41°00' W 072°11'0 0.0
2014-Aug-27 18:31N 41°00' W 072°11'0 0.0
2014-Aug-27 17:31N 41°00' W 072°11'0 0.0
2014-Aug-27 16:31N 41°00' W 072°11'0 0.0
2014-Aug-27 15:31N 41°00' W 072°11'0 0.0
2014-Aug-27 14:31N 41°00' W 072°11'0 0.0
2014-Aug-27 13:32N 41°00' W 072°11'0 0.0
2014-Aug-27 12:28N 41°00' W 072°11'0 0.0
2014-Aug-27 11:31N 41°00' W 072°11'0 0.0
2014-Aug-27 10:31N 41°00' W 072°11'0 0.0
2014-Aug-27 09:31N 41°00' W 072°11'0 0.0
2014-Aug-27 08:31N 41°00' W 072°11'0 0.0
2014-Aug-27 07:25N 41°00' W 072°11'0 0.0
2014-Aug-27 06:33N 41°00' W 072°11'0 0.0
2014-Aug-27 05:30N 41°00' W 072°11'0 0.0
2014-Aug-27 04:33N 41°00' W 072°11'0 0.0
2014-Aug-27 03:33N 41°00' W 072°11'0 0.0
2014-Aug-27 02:31N 41°00' W 072°11'0 0.0
2014-Aug-27 01:33N 41°00' W 072°11'0 0.0
2014-Aug-27 00:33N 41°00' W 072°11'0 0.0
2014-Aug-26 23:32N 41°00' W 072°11'0 0.0
2014-Aug-26 22:31N 41°00' W 072°11'0 0.0
2014-Aug-26 21:28N 41°00' W 072°11'0 0.0
2014-Aug-26 20:28N 41°00' W 072°11'0 0.0
2014-Aug-26 19:28N 41°00' W 072°11'0 0.0
2014-Aug-26 18:31N 41°00' W 072°11'0 0.0
2014-Aug-26 17:28N 41°00' W 072°11'0 0.0
2014-Aug-26 16:31N 41°00' W 072°11'0 0.0
2014-Aug-26 15:31N 41°00' W 072°11'0 0.0
2014-Aug-26 14:28N 41°00' W 072°11'0 0.0
2014-Aug-26 13:28N 41°00' W 072°11'0 0.0
2014-Aug-26 12:31N 41°00' W 072°11'0 0.0
2014-Aug-26 11:31N 41°00' W 072°11'0 0.0
2014-Aug-26 10:31N 41°00' W 072°11'0 0.0
2014-Aug-26 09:31N 41°00' W 072°11'0 0.0
2014-Aug-26 08:31N 41°00' W 072°11'0 0.0
2014-Aug-26 07:31N 41°00' W 072°11'0 0.0
2014-Aug-26 06:31N 41°00' W 072°11'0 0.0
2014-Aug-26 05:31N 41°00' W 072°11'0 0.0
2014-Aug-26 04:31N 41°00' W 072°11'0 0.0
2014-Aug-26 03:31N 41°00' W 072°11'0 0.0
2014-Aug-26 02:31N 41°00' W 072°11'0 0.0
2014-Aug-26 01:31N 41°00' W 072°11'0 0.0
2014-Aug-26 00:28N 41°00' W 072°11'0 0.0
2014-Aug-25 23:31N 41°00' W 072°11'0 0.0
2014-Aug-25 22:31N 41°00' W 072°11'0 0.0
2014-Aug-25 21:31N 41°00' W 072°11'0 0.0
2014-Aug-25 20:31N 41°00' W 072°11'0 0.0
2014-Aug-25 19:31N 41°00' W 072°11'0 0.0
2014-Aug-25 18:31N 41°00' W 072°11'0 0.0
2014-Aug-25 17:28N 41°00' W 072°11'0 0.0
2014-Aug-25 16:31N 41°00' W 072°11'0 0.0
2014-Aug-25 15:31N 41°00' W 072°11'0 0.0
2014-Aug-25 14:31N 41°00' W 072°11'0 0.0
2014-Aug-25 13:31N 41°00' W 072°11'0 0.0
2014-Aug-25 12:28N 41°00' W 072°11'0 0.0
2014-Aug-25 11:28N 41°00' W 072°11'0 0.0
2014-Aug-25 10:28N 41°00' W 072°11'0 0.0
2014-Aug-25 09:31N 41°00' W 072°11'0 0.0
2014-Aug-25 08:31N 41°00' W 072°11'0 0.0
2014-Aug-25 07:28N 41°00' W 072°11'0 0.0
2014-Aug-25 06:31N 41°00' W 072°11'0 0.0
2014-Aug-25 05:31N 41°00' W 072°11'0 0.0
2014-Aug-25 04:31N 41°00' W 072°11'0 0.0
2014-Aug-25 03:31N 41°00' W 072°11'0 0.0
2014-Aug-25 02:31N 41°00' W 072°11'0 0.0
2014-Aug-25 01:31N 41°00' W 072°11'0 0.0
2014-Aug-25 00:31N 41°00' W 072°11'0 0.0
2014-Aug-24 23:31N 41°00' W 072°11'0 0.0
2014-Aug-24 22:31N 41°00' W 072°11'0 0.0
2014-Aug-24 21:31N 41°00' W 072°11'0 0.0
2014-Aug-24 20:31N 41°00' W 072°11'0 0.0
2014-Aug-24 19:31N 41°00' W 072°11'0 0.0
2014-Aug-24 18:31N 41°00' W 072°11'0 0.0
2014-Aug-24 17:33N 41°00' W 072°11'0 0.0
2014-Aug-24 16:33N 41°00' W 072°11'0 0.0
2014-Aug-24 15:33N 41°00' W 072°11'0 0.0
2014-Aug-24 14:33N 41°00' W 072°11'0 0.0
2014-Aug-24 13:33N 41°00' W 072°11'0 0.0
2014-Aug-24 12:33N 41°00' W 072°11'0 0.0
2014-Aug-24 11:33N 41°00' W 072°11'0 0.0
2014-Aug-24 10:33N 41°00' W 072°11'0 0.0
2014-Aug-24 09:33N 41°00' W 072°11'0 0.0
2014-Aug-24 08:33N 41°00' W 072°11'0 0.0
2014-Aug-24 07:33N 41°00' W 072°11'0 0.0
2014-Aug-24 06:33N 41°00' W 072°11'0 0.0
2014-Aug-24 05:33N 41°00' W 072°11'0 0.0
2014-Aug-24 04:33N 41°00' W 072°11'0 0.0
2014-Aug-24 03:33N 41°00' W 072°11'0 0.0
2014-Aug-24 02:33N 41°00' W 072°11'0 0.0
2014-Aug-24 01:33N 41°00' W 072°11'0 0.0
2014-Aug-24 00:33N 41°00' W 072°11'0 0.0
2014-Aug-23 23:33N 41°00' W 072°11'0 0.0
2014-Aug-23 22:34N 41°00' W 072°11'2 2.1
2014-Aug-23 21:31N 41°02' W 072°12'0 0.0
2014-Aug-23 20:31N 41°02' W 072°12'3 3.0
2014-Aug-23 19:33N 41°03' W 072°15'4 0.3
2014-Aug-23 03:33N 41°00' W 072°11'0 0.0
2014-Aug-23 02:33N 41°00' W 072°11'0 0.0
2014-Aug-23 01:33N 41°00' W 072°11'0 0.0
2014-Aug-23 00:33N 41°00' W 072°11'0 0.0
2014-Aug-22 23:33N 41°00' W 072°11'0 0.0
2014-Aug-22 22:33N 41°00' W 072°11'0 0.0
2014-Aug-22 21:33N 41°00' W 072°11'0 0.0
2014-Aug-22 20:33N 41°00' W 072°11'0 0.0
2014-Aug-22 19:33N 41°00' W 072°11'0 0.0
2014-Aug-22 18:33N 41°00' W 072°11'  
Track history (hours):
 
Tides and Currents Weather Stations Pressure Air Temp Water Temp Dewpoint Dewpoint Depression Visibility Wind Speed Wind Dir Waves Ship Positions

Ocean Drive

Last reported at 2014-Sep-01 18:32 UTC. Time now 2014-Sep-01 19:02 UTC.
Position N 41°00' W 072°11'.

Length 104 m.

Type: Port tender. MMSI: 319901000.

Date/timePositionNaut miles runAvg speedWind from/ knotsBaromVisibWave heightAir tempDewpointWater temp
2014-Sep-01 18:32N 41°00' W 072°11'0 0.0
2014-Sep-01 17:32N 41°00' W 072°11'0 0.0
2014-Sep-01 16:32N 41°00' W 072°11'0 0.0
2014-Sep-01 15:32N 41°00' W 072°11'0 0.0
2014-Sep-01 14:29N 41°00' W 072°11'0 0.0
2014-Sep-01 13:32N 41°00' W 072°11'0 0.0
2014-Sep-01 12:32N 41°00' W 072°11'0 0.0
2014-Sep-01 11:32N 41°00' W 072°11'0 0.0
2014-Sep-01 10:32N 41°00' W 072°11'0 0.0
2014-Sep-01 09:32N 41°00' W 072°11'0 0.0
2014-Sep-01 08:32N 41°00' W 072°11'0 0.0
2014-Sep-01 07:32N 41°00' W 072°11'0 0.0
2014-Sep-01 06:32N 41°00' W 072°11'0 0.0
2014-Sep-01 05:32N 41°00' W 072°11'0 0.0
2014-Sep-01 04:32N 41°00' W 072°11'0 0.0
2014-Sep-01 03:32N 41°00' W 072°11'0 0.0
2014-Sep-01 02:32N 41°00' W 072°11'0 0.0
2014-Sep-01 01:32N 41°00' W 072°11'0 0.0
2014-Sep-01 00:32N 41°00' W 072°11'0 0.0
2014-Aug-31 23:32N 41°00' W 072°11'0 0.0
2014-Aug-31 22:32N 41°00' W 072°11'0 0.0
2014-Aug-31 21:32N 41°00' W 072°11'0 0.0
2014-Aug-31 20:32N 41°00' W 072°11'0 0.0
2014-Aug-31 19:29N 41°00' W 072°11'0 0.0
2014-Aug-31 18:32N 41°00' W 072°11'0 0.0
2014-Aug-31 17:29N 41°00' W 072°11'0 0.0
2014-Aug-31 16:32N 41°00' W 072°11'0 0.0
2014-Aug-31 15:26N 41°00' W 072°11'0 0.0
2014-Aug-31 14:33N 41°00' W 072°11'0 0.0
2014-Aug-31 13:33N 41°00' W 072°11'0 0.0
2014-Aug-31 12:33N 41°00' W 072°11'0 0.0
2014-Aug-31 11:33N 41°00' W 072°11'0 0.0
2014-Aug-31 10:33N 41°00' W 072°11'0 0.0
2014-Aug-31 09:33N 41°00' W 072°11'0 0.0
2014-Aug-31 08:33N 41°00' W 072°11'0 0.0
2014-Aug-31 07:33N 41°00' W 072°11'0 0.0
2014-Aug-31 06:33N 41°00' W 072°11'0 0.0
2014-Aug-31 05:33N 41°00' W 072°11'0 0.0
2014-Aug-31 04:33N 41°00' W 072°11'0 0.0
2014-Aug-31 03:33N 41°00' W 072°11'0 0.0
2014-Aug-31 02:33N 41°00' W 072°11'0 0.0
2014-Aug-31 01:33N 41°00' W 072°11'0 0.0
2014-Aug-31 00:33N 41°00' W 072°11'0 0.0
2014-Aug-30 23:33N 41°00' W 072°11'0 0.0
2014-Aug-30 22:33N 41°00' W 072°11'0 0.0
2014-Aug-30 21:33N 41°00' W 072°11'5 4.7
2014-Aug-30 20:33N 41°04' W 072°14'4 4.2
2014-Aug-30 19:33N 41°07' W 072°18'0 0.0
2014-Aug-30 18:34N 41°07' W 072°18'0 0.0
2014-Aug-30 17:30N 41°07' W 072°18'0 0.0
2014-Aug-30 16:34N 41°07' W 072°18'1 1.4
2014-Aug-30 15:33N 41°06' W 072°17'8 7.5
2014-Aug-30 14:34N 41°00' W 072°11'0 0.1
2014-Aug-30 13:32N 41°00' W 072°11'0 0.0
2014-Aug-30 12:32N 41°00' W 072°11'0 0.0
2014-Aug-30 11:32N 41°00' W 072°11'0 0.0
2014-Aug-30 10:32N 41°00' W 072°11'0 0.0
2014-Aug-30 09:32N 41°00' W 072°11'0 0.0
2014-Aug-30 08:32N 41°00' W 072°11'0 0.0
2014-Aug-30 07:32N 41°00' W 072°11'0 0.0
2014-Aug-30 06:29N 41°00' W 072°11'0 0.0
2014-Aug-30 05:32N 41°00' W 072°11'0 0.0
2014-Aug-30 04:32N 41°00' W 072°11'0 0.0
2014-Aug-30 03:32N 41°00' W 072°11'0 0.0
2014-Aug-30 02:32N 41°00' W 072°11'0 0.0
2014-Aug-30 01:32N 41°00' W 072°11'0 0.0
2014-Aug-30 00:29N 41°00' W 072°11'0 0.0
2014-Aug-29 23:32N 41°00' W 072°11'0 0.0
2014-Aug-29 22:32N 41°00' W 072°11'0 0.0
2014-Aug-29 21:32N 41°00' W 072°11'0 0.0
2014-Aug-29 20:31N 41°00' W 072°11'0 0.0
2014-Aug-29 19:32N 41°00' W 072°11'0 0.0
2014-Aug-29 18:32N 41°00' W 072°11'0 0.0
2014-Aug-29 17:31N 41°00' W 072°11'0 0.0
2014-Aug-29 16:29N 41°00' W 072°11'0 0.0
2014-Aug-29 15:32N 41°00' W 072°11'0 0.0
2014-Aug-29 14:32N 41°00' W 072°11'0 0.0
2014-Aug-29 13:31N 41°00' W 072°11'0 0.0
2014-Aug-29 12:31N 41°00' W 072°11'0 0.0
2014-Aug-29 11:31N 41°00' W 072°11'0 0.0
2014-Aug-29 10:29N 41°00' W 072°11'0 0.0
2014-Aug-29 09:31N 41°00' W 072°11'0 0.0
2014-Aug-29 08:32N 41°00' W 072°11'0 0.0
2014-Aug-29 07:31N 41°00' W 072°11'0 0.0
2014-Aug-29 06:31N 41°00' W 072°11'0 0.0
2014-Aug-29 05:31N 41°00' W 072°11'0 0.0
2014-Aug-29 04:31N 41°00' W 072°11'0 0.0
2014-Aug-29 03:28N 41°00' W 072°11'0 0.0
2014-Aug-29 02:31N 41°00' W 072°11'0 0.0
2014-Aug-29 01:31N 41°00' W 072°11'0 0.0
2014-Aug-29 00:31N 41°00' W 072°11'0 0.0
2014-Aug-28 23:31N 41°00' W 072°11'0 0.0
2014-Aug-28 22:31N 41°00' W 072°11'0 0.0
2014-Aug-28 21:31N 41°00' W 072°11'0 0.0
2014-Aug-28 20:31N 41°00' W 072°11'0 0.0
2014-Aug-28 19:31N 41°00' W 072°11'0 0.0
2014-Aug-28 18:31N 41°00' W 072°11'0 0.0
2014-Aug-28 17:31N 41°00' W 072°11'0 0.0
2014-Aug-28 16:31N 41°00' W 072°11'0 0.0
2014-Aug-28 15:31N 41°00' W 072°11'0 0.0
2014-Aug-28 14:31N 41°00' W 072°11'0 0.0
2014-Aug-28 13:31N 41°00' W 072°11'0 0.0
2014-Aug-28 12:28N 41°00' W 072°11'0 0.0
2014-Aug-28 11:31N 41°00' W 072°11'0 0.0
2014-Aug-28 10:31N 41°00' W 072°11'0 0.0
2014-Aug-28 09:31N 41°00' W 072°11'0 0.0
2014-Aug-28 08:31N 41°00' W 072°11'0 0.0
2014-Aug-28 07:31N 41°00' W 072°11'0 0.0
2014-Aug-28 06:31N 41°00' W 072°11'0 0.0
2014-Aug-28 05:31N 41°00' W 072°11'0 0.0
2014-Aug-28 04:31N 41°00' W 072°11'0 0.0
2014-Aug-28 03:31N 41°00' W 072°11'0 0.0
2014-Aug-28 02:31N 41°00' W 072°11'0 0.0
2014-Aug-28 01:28N 41°00' W 072°11'0 0.0
2014-Aug-28 00:28N 41°00' W 072°11'0 0.0
2014-Aug-27 23:31N 41°00' W 072°11'0 0.0
2014-Aug-27 22:31N 41°00' W 072°11'0 0.0
2014-Aug-27 21:31N 41°00' W 072°11'0 0.0
2014-Aug-27 20:31N 41°00' W 072°11'0 0.0
2014-Aug-27 19:28N 41°00' W 072°11'0 0.0
2014-Aug-27 18:31N 41°00' W 072°11'0 0.0
2014-Aug-27 17:31N 41°00' W 072°11'0 0.0
2014-Aug-27 16:31N 41°00' W 072°11'0 0.0
2014-Aug-27 15:31N 41°00' W 072°11'0 0.0
2014-Aug-27 14:31N 41°00' W 072°11'0 0.0
2014-Aug-27 13:32N 41°00' W 072°11'0 0.0
2014-Aug-27 12:28N 41°00' W 072°11'0 0.0
2014-Aug-27 11:31N 41°00' W 072°11'0 0.0
2014-Aug-27 10:31N 41°00' W 072°11'0 0.0
2014-Aug-27 09:31N 41°00' W 072°11'0 0.0
2014-Aug-27 08:31N 41°00' W 072°11'0 0.0
2014-Aug-27 07:25N 41°00' W 072°11'0 0.0
2014-Aug-27 06:33N 41°00' W 072°11'0 0.0
2014-Aug-27 05:30N 41°00' W 072°11'0 0.0
2014-Aug-27 04:33N 41°00' W 072°11'0 0.0
2014-Aug-27 03:33N 41°00' W 072°11'0 0.0
2014-Aug-27 02:31N 41°00' W 072°11'0 0.0
2014-Aug-27 01:33N 41°00' W 072°11'0 0.0
2014-Aug-27 00:33N 41°00' W 072°11'0 0.0
2014-Aug-26 23:32N 41°00' W 072°11'0 0.0
2014-Aug-26 22:31N 41°00' W 072°11'0 0.0
2014-Aug-26 21:28N 41°00' W 072°11'0 0.0
2014-Aug-26 20:28N 41°00' W 072°11'0 0.0
2014-Aug-26 19:28N 41°00' W 072°11'0 0.0
2014-Aug-26 18:31N 41°00' W 072°11'0 0.0
2014-Aug-26 17:28N 41°00' W 072°11'0 0.0
2014-Aug-26 16:31N 41°00' W 072°11'0 0.0
2014-Aug-26 15:31N 41°00' W 072°11'0 0.0
2014-Aug-26 14:28N 41°00' W 072°11'0 0.0
2014-Aug-26 13:28N 41°00' W 072°11'0 0.0
2014-Aug-26 12:31N 41°00' W 072°11'0 0.0
2014-Aug-26 11:31N 41°00' W 072°11'0 0.0
2014-Aug-26 10:31N 41°00' W 072°11'0 0.0
2014-Aug-26 09:31N 41°00' W 072°11'0 0.0
2014-Aug-26 08:31N 41°00' W 072°11'0 0.0
2014-Aug-26 07:31N 41°00' W 072°11'0 0.0
2014-Aug-26 06:31N 41°00' W 072°11'0 0.0
2014-Aug-26 05:31N 41°00' W 072°11'0 0.0
2014-Aug-26 04:31N 41°00' W 072°11'0 0.0
2014-Aug-26 03:31N 41°00' W 072°11'0 0.0
2014-Aug-26 02:31N 41°00' W 072°11'0 0.0
2014-Aug-26 01:31N 41°00' W 072°11'0 0.0
2014-Aug-26 00:28N 41°00' W 072°11'0 0.0
2014-Aug-25 23:31N 41°00' W 072°11'0 0.0
2014-Aug-25 22:31N 41°00' W 072°11'0 0.0
2014-Aug-25 21:31N 41°00' W 072°11'0 0.0
2014-Aug-25 20:31N 41°00' W 072°11'0 0.0
2014-Aug-25 19:31N 41°00' W 072°11'0 0.0
2014-Aug-25 18:31N 41°00' W 072°11'0 0.0
2014-Aug-25 17:28N 41°00' W 072°11'0 0.0
2014-Aug-25 16:31N 41°00' W 072°11'0 0.0
2014-Aug-25 15:31N 41°00' W 072°11'0 0.0
2014-Aug-25 14:31N 41°00' W 072°11'0 0.0
2014-Aug-25 13:31N 41°00' W 072°11'0 0.0
2014-Aug-25 12:28N 41°00' W 072°11'0 0.0
2014-Aug-25 11:28N 41°00' W 072°11'0 0.0
2014-Aug-25 10:28N 41°00' W 072°11'0 0.0
2014-Aug-25 09:31N 41°00' W 072°11'0 0.0
2014-Aug-25 08:31N 41°00' W 072°11'0 0.0
2014-Aug-25 07:28N 41°00' W 072°11'0 0.0
2014-Aug-25 06:31N 41°00' W 072°11'0 0.0
2014-Aug-25 05:31N 41°00' W 072°11'0 0.0
2014-Aug-25 04:31N 41°00' W 072°11'0 0.0
2014-Aug-25 03:31N 41°00' W 072°11'0 0.0
2014-Aug-25 02:31N 41°00' W 072°11'0 0.0
2014-Aug-25 01:31N 41°00' W 072°11'0 0.0
2014-Aug-25 00:31N 41°00' W 072°11'0 0.0
2014-Aug-24 23:31N 41°00' W 072°11'0 0.0
2014-Aug-24 22:31N 41°00' W 072°11'0 0.0
2014-Aug-24 21:31N 41°00' W 072°11'0 0.0
2014-Aug-24 20:31N 41°00' W 072°11'0 0.0
2014-Aug-24 19:31N 41°00' W 072°11'0 0.0
2014-Aug-24 18:31N 41°00' W 072°11'0 0.0
2014-Aug-24 17:33N 41°00' W 072°11'0 0.0
2014-Aug-24 16:33N 41°00' W 072°11'0 0.0
2014-Aug-24 15:33N 41°00' W 072°11'0 0.0
2014-Aug-24 14:33N 41°00' W 072°11'0 0.0
2014-Aug-24 13:33N 41°00' W 072°11'0 0.0
2014-Aug-24 12:33N 41°00' W 072°11'0 0.0
2014-Aug-24 11:33N 41°00' W 072°11'0 0.0
2014-Aug-24 10:33N 41°00' W 072°11'0 0.0
2014-Aug-24 09:33N 41°00' W 072°11'0 0.0
2014-Aug-24 08:33N 41°00' W 072°11'0 0.0
2014-Aug-24 07:33N 41°00' W 072°11'0 0.0
2014-Aug-24 06:33N 41°00' W 072°11'0 0.0
2014-Aug-24 05:33N 41°00' W 072°11'0 0.0
2014-Aug-24 04:33N 41°00' W 072°11'0 0.0
2014-Aug-24 03:33N 41°00' W 072°11'0 0.0
2014-Aug-24 02:33N 41°00' W 072°11'0 0.0
2014-Aug-24 01:33N 41°00' W 072°11'0 0.0
2014-Aug-24 00:33N 41°00' W 072°11'0 0.0
2014-Aug-23 23:33N 41°00' W 072°11'0 0.0
2014-Aug-23 22:34N 41°00' W 072°11'2 2.1
2014-Aug-23 21:31N 41°02' W 072°12'0 0.0
2014-Aug-23 20:31N 41°02' W 072°12'3 3.0
2014-Aug-23 19:33N 41°03' W 072°15'4 0.3
2014-Aug-23 03:33N 41°00' W 072°11'0 0.0
2014-Aug-23 02:33N 41°00' W 072°11'0 0.0
2014-Aug-23 01:33N 41°00' W 072°11'0 0.0
2014-Aug-23 00:33N 41°00' W 072°11'0 0.0
2014-Aug-22 23:33N 41°00' W 072°11'0 0.0
2014-Aug-22 22:33N 41°00' W 072°11'0 0.0
2014-Aug-22 21:33N 41°00' W 072°11'0 0.0
2014-Aug-22 20:33N 41°00' W 072°11'0 0.0
2014-Aug-22 19:33N 41°00' W 072°11'0 0.0
2014-Aug-22 18:33N 41°00' W 072°11'  

Dump ship's entire track history